Time;durP1;ratioP1;P1;durP2;ratioP2;P2;SDS_P1;SDS_P2;PMS_P1;PMS_P2;Temp;Humidity;BMP_temperature;BMP_pressure;BME280_temperature;BME280_humidity;BME280_pressure;Samples;Min_cycle;Max_cycle;Signal;HPM_P1;HPM_P2
2021/08/17 00:00:58;;;;;;;41.60;23.88;;;;;;;;;;6057360;23;20650;-78
2021/08/17 00:03:27;;;;;;;36.47;20.90;;;;;;;;;;6037678;23;20498;-79
2021/08/17 00:05:54;;;;;;;37.30;21.85;;;;;;;;;;6059824;23;20064;-76
2021/08/17 00:08:22;;;;;;;39.40;21.20;;;;;;;;;;6035424;23;20511;-77
2021/08/17 00:10:49;;;;;;;38.78;21.50;;;;;;;;;;6051328;23;20106;-77
2021/08/17 00:13:16;;;;;;;35.47;21.08;;;;;;;;;;6009888;23;20045;-75
2021/08/17 00:15:43;;;;;;;35.17;21.70;;;;;;;;;;6043332;23;20014;-77
2021/08/17 00:18:10;;;;;;;36.38;23.30;;;;;;;;;;6047620;23;20419;-80
2021/08/17 00:20:39;;;;;;;33.25;19.42;;;;;;;;;;6024349;23;20467;-76
2021/08/17 00:23:07;;;;;;;35.80;21.90;;;;;;;;;;6050938;23;20011;-76
2021/08/17 00:25:42;;;;;;;40.20;24.27;;;;;;;;;;6052240;23;20093;-76
2021/08/17 00:28:10;;;;;;;36.03;21.48;;;;;;;;;;6051214;23;20457;-74
2021/08/17 00:30:38;;;;;;;39.05;22.83;;;;;;;;;;6047574;23;20046;-76
2021/08/17 00:33:06;;;;;;;35.30;21.45;;;;;;;;;;6049491;23;20095;-78
2021/08/17 00:35:36;;;;;;;37.78;21.75;;;;;;;;;;6052477;23;20011;-77
2021/08/17 00:38:04;;;;;;;39.97;21.38;;;;;;;;;;6024585;23;20026;-76
2021/08/17 00:40:33;;;;;;;35.55;21.92;;;;;;;;;;6069106;23;20019;-76
2021/08/17 00:43:00;;;;;;;41.88;25.27;;;;;;;;;;6044097;23;20015;-75
2021/08/17 00:45:29;;;;;;;37.35;22.98;;;;;;;;;;6052818;23;20014;-76
2021/08/17 00:47:57;;;;;;;46.35;25.50;;;;;;;;;;6047678;23;20030;-75
2021/08/17 00:50:28;;;;;;;39.13;21.80;;;;;;;;;;6048973;23;20026;-76
2021/08/17 00:52:57;;;;;;;35.65;21.67;;;;;;;;;;6034977;23;20478;-75
2021/08/17 00:55:27;;;;;;;35.58;21.05;;;;;;;;;;6027386;23;20023;-75
2021/08/17 00:57:54;;;;;;;40.60;23.23;;;;;;;;;;6040356;23;20023;-76
2021/08/17 01:00:21;;;;;;;38.63;22.25;;;;;;;;;;6070482;23;20042;-78
2021/08/17 01:02:50;;;;;;;36.30;20.30;;;;;;;;;;6027880;23;20058;-76
2021/08/17 01:05:21;;;;;;;34.13;19.02;;;;;;;;;;6053143;23;20070;-77
2021/08/17 01:07:48;;;;;;;38.35;21.20;;;;;;;;;;6039142;23;20019;-76
2021/08/17 01:10:16;;;;;;;;;;;;;;;;;;6026557;23;20026;-80
2021/08/17 01:12:43;;;;;;;39.08;21.80;;;;;;;;;;6045223;23;20377;-78
2021/08/17 01:15:12;;;;;;;37.47;20.50;;;;;;;;;;5994065;23;20205;-76
2021/08/17 01:17:39;;;;;;;34.83;20.80;;;;;;;;;;6050628;23;20094;-78
2021/08/17 01:20:14;;;;;;;35.33;22.27;;;;;;;;;;6051198;23;20452;-79
2021/08/17 01:22:47;;;;;;;39.05;22.80;;;;;;;;;;6047075;23;20073;-79
2021/08/17 01:25:15;;;;;;;35.92;20.58;;;;;;;;;;6022244;23;20463;-79
2021/08/17 01:27:45;;;;;;;36.25;21.55;;;;;;;;;;6042616;23;20022;-78
2021/08/17 01:30:14;;;;;;;35.33;20.40;;;;;;;;;;6053649;23;20471;-78
2021/08/17 01:32:47;;;;;;;34.50;18.80;;;;;;;;;;5993089;23;20392;-78
2021/08/17 01:35:15;;;;;;;36.50;21.42;;;;;;;;;;6034412;23;20014;-78
2021/08/17 01:37:42;;;;;;;34.20;19.40;;;;;;;;;;6027156;23;20038;-78
2021/08/17 01:40:11;;;;;;;35.60;19.98;;;;;;;;;;6053528;23;20015;-77
2021/08/17 01:42:51;;;;;;;34.22;19.88;;;;;;;;;;6040416;23;20018;-78
2021/08/17 01:45:20;;;;;;;34.35;20.35;;;;;;;;;;5989553;23;20018;-79
2021/08/17 01:47:49;;;;;;;38.17;22.17;;;;;;;;;;6069069;23;20014;-79
2021/08/17 01:50:18;;;;;;;33.13;19.88;;;;;;;;;;6050282;23;20023;-78
2021/08/17 01:52:45;;;;;;;37.33;19.48;;;;;;;;;;6045955;23;20059;-78
2021/08/17 01:55:15;;;;;;;33.13;20.58;;;;;;;;;;6019733;23;20359;-79
2021/08/17 01:57:43;;;;;;;35.40;19.95;;;;;;;;;;6017554;23;20470;-78
2021/08/17 02:00:12;;;;;;;34.13;19.17;;;;;;;;;;6041780;23;20078;-81
2021/08/17 02:02:39;;;;;;;33.63;20.55;;;;;;;;;;6048581;23;20061;-80
2021/08/17 02:05:10;;;;;;;38.85;21.20;;;;;;;;;;6045066;23;20030;-79
2021/08/17 02:07:37;;;;;;;35.38;19.75;;;;;;;;;;6040433;23;20612;-78
2021/08/17 02:10:06;;;;;;;36.58;22.42;;;;;;;;;;6037426;23;20408;-79
2021/08/17 02:12:33;;;;;;;;;;;;;;;;;;6044044;23;20018;-78
2021/08/17 02:15:00;;;;;;;;;;;;;;;;;;6025792;23;20277;-79
2021/08/17 02:17:27;;;;;;;37.72;20.52;;;;;;;;;;6071761;23;20273;-78
2021/08/17 02:19:59;;;;;;;34.08;21.27;;;;;;;;;;6052283;23;20347;-78
2021/08/17 02:22:27;;;;;;;36.72;21.38;;;;;;;;;;6017973;23;20478;-80
2021/08/17 02:24:54;;;;;;;39.15;22.02;;;;;;;;;;6042203;23;20015;-80
2021/08/17 02:27:21;;;;;;;42.38;21.95;;;;;;;;;;6050838;23;20015;-78
2021/08/17 02:29:48;;;;;;;41.03;21.88;;;;;;;;;;6050099;23;20017;-77
2021/08/17 02:32:15;;;;;;;37.25;21.92;;;;;;;;;;6053866;23;20046;-80
2021/08/17 02:34:43;;;;;;;40.65;23.42;;;;;;;;;;6052007;23;20018;-78
2021/08/17 02:37:10;;;;;;;40.25;22.45;;;;;;;;;;6053633;23;20014;-78
2021/08/17 02:39:37;;;;;;;34.65;19.85;;;;;;;;;;6041078;23;20065;-79
2021/08/17 02:42:04;;;;;;;33.92;19.88;;;;;;;;;;6043077;23;20030;-78
2021/08/17 02:44:31;;;;;;;33.67;19.25;;;;;;;;;;6048329;23;20094;-78
2021/08/17 02:46:58;;;;;;;37.38;20.20;;;;;;;;;;6017040;23;20027;-79
2021/08/17 02:49:26;;;;;;;40.40;21.45;;;;;;;;;;6042397;23;20901;-81
2021/08/17 02:51:56;;;;;;;34.05;20.15;;;;;;;;;;6041997;23;20022;-80
2021/08/17 02:54:25;;;;;;;37.22;20.70;;;;;;;;;;6056136;23;20494;-79
2021/08/17 02:56:55;;;;;;;33.58;20.65;;;;;;;;;;6024211;23;20027;-80
2021/08/17 02:59:23;;;;;;;36.75;21.55;;;;;;;;;;6054279;23;20363;-78
2021/08/17 03:01:50;;;;;;;36.40;21.35;;;;;;;;;;6019864;23;20028;-78
2021/08/17 03:04:20;;;;;;;37.22;21.38;;;;;;;;;;6016920;23;20022;-80
2021/08/17 03:06:50;;;;;;;33.58;21.20;;;;;;;;;;6042610;23;20016;-79
2021/08/17 03:09:17;;;;;;;33.28;20.88;;;;;;;;;;6028116;23;20030;-81
2021/08/17 03:11:44;;;;;;;38.08;20.55;;;;;;;;;;6032397;23;20014;-81
2021/08/17 03:14:11;;;;;;;39.55;21.67;;;;;;;;;;6048911;23;20010;-80
2021/08/17 03:16:40;;;;;;;36.22;20.58;;;;;;;;;;6043135;23;20010;-87
2021/08/17 03:19:09;;;;;;;31.52;18.75;;;;;;;;;;5982325;23;20079;-81
2021/08/17 03:21:38;;;;;;;33.47;20.10;;;;;;;;;;6046308;23;20018;-81
2021/08/17 03:24:09;;;;;;;34.47;20.40;;;;;;;;;;5999379;23;20007;-79
2021/08/17 03:26:36;;;;;;;34.58;20.73;;;;;;;;;;6038860;23;20029;-82
2021/08/17 03:29:05;;;;;;;32.05;20.27;;;;;;;;;;6051966;23;20019;-80
2021/08/17 03:31:33;;;;;;;32.40;20.55;;;;;;;;;;6048863;23;20026;-80
2021/08/17 03:34:01;;;;;;;33.85;20.67;;;;;;;;;;6038438;23;20451;-79
2021/08/17 03:36:28;;;;;;;35.83;20.25;;;;;;;;;;6043624;23;20014;-78
2021/08/17 03:38:57;;;;;;;33.25;21.63;;;;;;;;;;6030790;23;20021;-80
2021/08/17 03:41:25;;;;;;;36.88;21.00;;;;;;;;;;6027682;23;20019;-78
2021/08/17 03:43:52;;;;;;;33.53;21.27;;;;;;;;;;6052734;23;20088;-78
2021/08/17 03:46:21;;;;;;;37.22;20.83;;;;;;;;;;6006207;23;20053;-78
2021/08/17 03:48:48;;;;;;;37.00;20.67;;;;;;;;;;6036560;23;20057;-79
2021/08/17 03:51:15;;;;;;;35.88;20.88;;;;;;;;;;6017375;23;20015;-79
2021/08/17 03:53:43;;;;;;;34.15;19.83;;;;;;;;;;6052990;23;20015;-79
2021/08/17 03:56:11;;;;;;;34.60;21.40;;;;;;;;;;6040028;23;20055;-79
2021/08/17 03:58:39;;;;;;;37.67;22.25;;;;;;;;;;6042922;23;20019;-79
2021/08/17 04:01:06;;;;;;;39.20;21.92;;;;;;;;;;6038471;23;20383;-79
2021/08/17 04:03:34;;;;;;;38.97;22.98;;;;;;;;;;6043509;23;20027;-79
2021/08/17 04:06:01;;;;;;;37.00;21.20;;;;;;;;;;6053990;23;20075;-79
2021/08/17 04:08:29;;;;;;;36.78;20.40;;;;;;;;;;6002152;23;20094;-79
2021/08/17 04:10:58;;;;;;;36.83;21.42;;;;;;;;;;6047940;23;20038;-78
2021/08/17 04:13:25;;;;;;;35.05;21.15;;;;;;;;;;6052153;23;20030;-80
2021/08/17 04:15:52;;;;;;;33.00;19.73;;;;;;;;;;6050836;23;20018;-79
2021/08/17 04:18:19;;;;;;;32.00;21.58;;;;;;;;;;6020916;23;20015;-79
2021/08/17 04:20:46;;;;;;;35.17;21.42;;;;;;;;;;6042637;23;20149;-79
2021/08/17 04:23:14;;;;;;;34.42;20.70;;;;;;;;;;6025181;23;20022;-78
2021/08/17 04:25:41;;;;;;;38.22;21.70;;;;;;;;;;6054681;23;20624;-79
2021/08/17 04:28:08;;;;;;;35.25;20.13;;;;;;;;;;6046652;23;20022;-78
2021/08/17 04:30:36;;;;;;;35.60;21.92;;;;;;;;;;6040591;23;20018;-78
2021/08/17 04:33:04;;;;;;;38.03;22.92;;;;;;;;;;6052133;23;20018;-79
2021/08/17 04:35:36;;;;;;;35.63;23.55;;;;;;;;;;6054931;23;20394;-80
2021/08/17 04:38:06;;;;;;;37.05;21.60;;;;;;;;;;6021538;23;20033;-79
2021/08/17 04:40:33;;;;;;;36.40;22.48;;;;;;;;;;6071315;23;20057;-80
2021/08/17 04:43:00;;;;;;;33.15;20.17;;;;;;;;;;6008479;23;20018;-80
2021/08/17 04:45:34;;;;;;;37.92;22.15;;;;;;;;;;6060250;23;20019;-81
2021/08/17 04:48:04;;;;;;;36.53;21.38;;;;;;;;;;5964618;23;20459;-81
2021/08/17 04:50:34;;;;;;;37.15;22.60;;;;;;;;;;5994910;23;20026;-83
2021/08/17 04:53:04;;;;;;;37.15;22.90;;;;;;;;;;5928056;23;20102;-84
2021/08/17 04:55:34;;;;;;;40.55;22.58;;;;;;;;;;5987320;23;20050;-86
2021/08/17 04:58:01;;;;;;;42.38;23.58;;;;;;;;;;6029053;23;20025;-79
2021/08/17 05:00:29;;;;;;;45.03;24.23;;;;;;;;;;6019066;23;20022;-79
2021/08/17 05:02:56;;;;;;;40.92;22.77;;;;;;;;;;6040561;23;20019;-81
2021/08/17 05:05:24;;;;;;;42.00;24.05;;;;;;;;;;6050832;23;20068;-81
2021/08/17 05:07:52;;;;;;;44.67;25.77;;;;;;;;;;6042834;23;20394;-82
2021/08/17 05:10:22;;;;;;;40.47;23.08;;;;;;;;;;5998345;23;20018;-82
2021/08/17 05:12:52;;;;;;;39.78;22.85;;;;;;;;;;5987698;23;20023;-79
2021/08/17 05:15:19;;;;;;;42.08;23.35;;;;;;;;;;6016128;23;20026;-78
2021/08/17 05:17:49;;;;;;;39.90;22.40;;;;;;;;;;6058257;23;20026;-83
2021/08/17 05:20:16;;;;;;;37.80;23.50;;;;;;;;;;6019763;23;20416;-81
2021/08/17 05:22:43;;;;;;;42.80;24.98;;;;;;;;;;6027440;23;20018;-81
2021/08/17 05:25:11;;;;;;;40.65;24.63;;;;;;;;;;6019979;23;20017;-82
2021/08/17 05:27:41;;;;;;;42.30;25.35;;;;;;;;;;6050191;23;20019;-81
2021/08/17 05:30:29;;;;;;;42.90;24.75;;;;;;;;;;6039265;23;20034;-81
2021/08/17 05:32:56;;;;;;;52.58;30.63;;;;;;;;;;6016169;23;20011;-81
2021/08/17 05:35:45;;;;;;;;;;;;;;;;;;5918776;24;20026;-82
2021/08/17 05:38:15;;;;;;;48.90;28.65;;;;;;;;;;5937129;24;19967;-80
2021/08/17 05:40:44;;;;;;;51.95;29.13;;;;;;;;;;5956407;24;20024;-80
2021/08/17 05:43:16;;;;;;;50.42;31.75;;;;;;;;;;5967241;24;22910;-80
2021/08/17 05:45:43;;;;;;;60.47;32.55;;;;;;;;;;5965734;24;20016;-80
2021/08/17 05:48:10;;;;;;;59.60;34.30;;;;;;;;;;5929271;24;20406;-79
2021/08/17 05:50:37;;;;;;;67.30;35.28;;;;;;;;;;5968087;24;20020;-79
2021/08/17 05:53:04;;;;;;;65.38;36.97;;;;;;;;;;5918289;24;21954;-79
2021/08/17 05:55:32;;;;;;;68.57;34.35;;;;;;;;;;5953108;24;20051;-79
2021/08/17 05:58:03;;;;;;;70.93;38.80;;;;;;;;;;5967803;24;20050;-79
2021/08/17 06:00:30;;;;;;;78.93;43.95;;;;;;;;;;5942541;24;20489;-79
2021/08/17 06:03:00;;;;;;;69.43;40.33;;;;;;;;;;5920108;24;20579;-79
2021/08/17 06:05:27;;;;;;;74.60;40.25;;;;;;;;;;5962740;24;20039;-79
2021/08/17 06:07:56;;;;;;;70.65;39.25;;;;;;;;;;6039988;23;20023;-80
2021/08/17 06:10:23;;;;;;;65.72;36.80;;;;;;;;;;6016204;23;20011;-80
2021/08/17 06:12:50;;;;;;;64.32;35.92;;;;;;;;;;6014892;23;20019;-80
2021/08/17 06:15:17;;;;;;;69.72;38.47;;;;;;;;;;5985356;23;20471;-80
2021/08/17 06:17:45;;;;;;;69.65;38.08;;;;;;;;;;6015650;23;20038;-80
2021/08/17 06:20:12;;;;;;;68.40;37.72;;;;;;;;;;6026278;23;20019;-80
2021/08/17 06:22:41;;;;;;;70.95;39.40;;;;;;;;;;6049179;23;20074;-80
2021/08/17 06:25:11;;;;;;;61.35;36.72;;;;;;;;;;6003445;23;20022;-80
2021/08/17 06:27:38;;;;;;;62.85;34.88;;;;;;;;;;6009739;23;20043;-80
2021/08/17 06:30:07;;;;;;;69.63;38.72;;;;;;;;;;6048552;23;20015;-80
2021/08/17 06:32:35;;;;;;;64.28;37.60;;;;;;;;;;6054862;23;20027;-80
2021/08/17 06:35:02;;;;;;;65.00;36.83;;;;;;;;;;6049016;23;20017;-80
2021/08/17 06:37:30;;;;;;;69.00;41.17;;;;;;;;;;6030770;23;20081;-80
2021/08/17 06:39:58;;;;;;;70.82;43.95;;;;;;;;;;6008862;23;20357;-80
2021/08/17 06:42:25;;;;;;;69.57;40.30;;;;;;;;;;6018282;23;20026;-80
2021/08/17 06:44:55;;;;;;;71.10;39.72;;;;;;;;;;6063948;23;20038;-81
2021/08/17 06:47:22;;;;;;;70.00;39.67;;;;;;;;;;6046729;23;20033;-80
2021/08/17 06:49:49;;;;;;;64.88;36.33;;;;;;;;;;6054299;23;20015;-79
2021/08/17 06:52:16;;;;;;;58.28;35.10;;;;;;;;;;6018753;23;20403;-79
2021/08/17 06:54:43;;;;;;;54.45;32.15;;;;;;;;;;6070134;23;20086;-79
2021/08/17 06:57:11;;;;;;;52.10;29.20;;;;;;;;;;6051626;23;20014;-80
2021/08/17 06:59:39;;;;;;;50.30;29.50;;;;;;;;;;6017712;23;20426;-79
2021/08/17 07:02:06;;;;;;;51.17;31.30;;;;;;;;;;6044775;23;20029;-79
2021/08/17 07:04:33;;;;;;;54.78;32.10;;;;;;;;;;6052090;23;20011;-79
2021/08/17 07:07:00;;;;;;;62.13;33.55;;;;;;;;;;6022079;23;20015;-79
2021/08/17 07:09:27;;;;;;;60.35;33.15;;;;;;;;;;6035241;23;20094;-80
2021/08/17 07:11:57;;;;;;;60.17;32.25;;;;;;;;;;6040741;23;20609;-79
2021/08/17 07:14:26;;;;;;;65.97;35.33;;;;;;;;;;6045741;23;20010;-79
2021/08/17 07:16:53;;;;;;;62.22;33.55;;;;;;;;;;6016892;23;20016;-79
2021/08/17 07:19:20;;;;;;;59.63;32.83;;;;;;;;;;6069852;23;20075;-80
2021/08/17 07:21:47;;;;;;;64.38;34.63;;;;;;;;;;6050427;23;20011;-79
2021/08/17 07:24:14;;;;;;;56.97;30.08;;;;;;;;;;6025792;23;20027;-80
2021/08/17 07:26:44;;;;;;;58.90;35.35;;;;;;;;;;6056212;23;20023;-80
2021/08/17 07:29:13;;;;;;;61.03;32.85;;;;;;;;;;6043835;23;20011;-80
2021/08/17 07:31:40;;;;;;;64.22;33.70;;;;;;;;;;6040209;23;20064;-80
2021/08/17 07:34:08;;;;;;;60.50;34.00;;;;;;;;;;6029454;23;20572;-80
2021/08/17 07:36:36;;;;;;;61.08;34.08;;;;;;;;;;6052301;23;20015;-80
2021/08/17 07:39:07;;;;;;;62.10;33.50;;;;;;;;;;6048873;23;20050;-79
2021/08/17 07:41:36;;;;;;;57.13;31.45;;;;;;;;;;5998924;23;20040;-80
2021/08/17 07:44:03;;;;;;;56.13;30.38;;;;;;;;;;6049267;23;20015;-79
2021/08/17 07:46:33;;;;;;;61.40;32.33;;;;;;;;;;6050795;23;20466;-79
2021/08/17 07:49:00;;;;;;;55.67;30.40;;;;;;;;;;6028341;23;20018;-79
2021/08/17 07:51:28;;;;;;;57.63;31.73;;;;;;;;;;6051158;23;20019;-80
2021/08/17 07:53:56;;;;;;;59.63;31.20;;;;;;;;;;6055079;23;20026;-79
2021/08/17 07:56:23;;;;;;;54.85;30.92;;;;;;;;;;6064523;23;20033;-80
2021/08/17 07:58:54;;;;;;;54.10;30.70;;;;;;;;;;6047941;23;20485;-81
2021/08/17 08:01:22;;;;;;;58.72;30.38;;;;;;;;;;6025768;23;20477;-80
2021/08/17 08:03:52;;;;;;;57.42;30.73;;;;;;;;;;5994589;23;20019;-80
2021/08/17 08:06:22;;;;;;;56.60;30.98;;;;;;;;;;6052477;23;20014;-80
2021/08/17 08:08:52;;;;;;;56.53;29.35;;;;;;;;;;6064759;23;20069;-80
2021/08/17 08:11:19;;;;;;;72.05;34.17;;;;;;;;;;6037354;23;20018;-80
2021/08/17 08:13:46;;;;;;;64.57;32.63;;;;;;;;;;6053327;23;20011;-80
2021/08/17 08:16:16;;;;;;;73.35;33.67;;;;;;;;;;6058312;23;20082;-81
2021/08/17 08:18:43;;;;;;;67.88;33.70;;;;;;;;;;6048565;23;20359;-81
2021/08/17 08:21:10;;;;;;;64.05;33.40;;;;;;;;;;6028503;23;20041;-80
2021/08/17 08:23:42;;;;;;;68.05;33.60;;;;;;;;;;6050061;23;20324;-80
2021/08/17 08:26:10;;;;;;;69.32;34.65;;;;;;;;;;6046791;23;20104;-80
2021/08/17 08:28:37;;;;;;;70.00;34.72;;;;;;;;;;6052908;23;20015;-80
2021/08/17 08:31:04;;;;;;;66.88;33.35;;;;;;;;;;6027773;23;20359;-80
2021/08/17 08:33:31;;;;;;;66.38;34.78;;;;;;;;;;6027419;23;20422;-81
2021/08/17 08:35:59;;;;;;;61.38;33.00;;;;;;;;;;6031708;23;20014;-79
2021/08/17 08:38:26;;;;;;;67.93;34.03;;;;;;;;;;6067795;23;20418;-80
2021/08/17 08:40:53;;;;;;;72.60;35.97;;;;;;;;;;6042051;23;20049;-81
2021/08/17 08:43:23;;;;;;;68.22;34.33;;;;;;;;;;6028921;23;20018;-80
2021/08/17 08:45:51;;;;;;;70.40;34.95;;;;;;;;;;6054430;23;20011;-80
2021/08/17 08:48:22;;;;;;;66.85;36.15;;;;;;;;;;6050061;23;20015;-79
2021/08/17 08:50:51;;;;;;;72.68;35.60;;;;;;;;;;6024264;23;20020;-79
2021/08/17 08:53:20;;;;;;;69.25;34.72;;;;;;;;;;6052065;23;20022;-79
2021/08/17 08:55:48;;;;;;;77.38;37.45;;;;;;;;;;6054858;23;20018;-80
2021/08/17 08:58:17;;;;;;;75.53;37.33;;;;;;;;;;6043306;23;20025;-80
2021/08/17 09:00:44;;;;;;;73.35;37.53;;;;;;;;;;6016820;23;20030;-80
2021/08/17 09:03:11;;;;;;;71.82;36.17;;;;;;;;;;6008413;23;20022;-79
2021/08/17 09:05:54;;;;;;;66.57;35.20;;;;;;;;;;6053523;23;20090;-80
2021/08/17 09:08:29;;;;;;;67.97;34.72;;;;;;;;;;6052165;23;20066;-79
2021/08/17 09:11:18;;;;;;;75.65;36.35;;;;;;;;;;5992892;23;20379;-80
2021/08/17 09:13:46;;;;;;;74.75;36.47;;;;;;;;;;6055380;23;20014;-80
2021/08/17 09:16:42;;;;;;;72.97;35.28;;;;;;;;;;6057383;23;20014;-80
2021/08/17 09:19:25;;;;;;;71.30;33.80;;;;;;;;;;6033102;23;20042;-80
2021/08/17 09:21:56;;;;;;;76.13;34.80;;;;;;;;;;6056660;23;20359;-80
2021/08/17 09:24:33;;;;;;;68.78;35.25;;;;;;;;;;6054257;23;20762;-80
2021/08/17 09:27:03;;;;;;;69.35;34.70;;;;;;;;;;6053748;23;20011;-82
2021/08/17 09:29:39;;;;;;;72.82;33.30;;;;;;;;;;6027108;23;20110;-80
2021/08/17 09:32:21;;;;;;;77.15;35.55;;;;;;;;;;6060550;23;20015;-81
2021/08/17 09:34:55;;;;;;;71.18;34.55;;;;;;;;;;6017547;23;20023;-79
2021/08/17 09:37:31;;;;;;;82.53;36.85;;;;;;;;;;6048018;23;20007;-81
2021/08/17 09:40:03;;;;;;;76.28;34.85;;;;;;;;;;6041758;23;20066;-80
2021/08/17 09:42:33;;;;;;;76.45;35.67;;;;;;;;;;6041932;23;20462;-79
2021/08/17 09:45:05;;;;;;;70.55;33.65;;;;;;;;;;6053398;23;20018;-79
2021/08/17 09:47:34;;;;;;;75.18;35.88;;;;;;;;;;5998761;23;20438;-78
2021/08/17 09:50:27;;;;;;;75.72;34.97;;;;;;;;;;5996261;23;20560;-78
2021/08/17 09:53:17;;;;;;;73.22;33.28;;;;;;;;;;6059087;23;20018;-79
2021/08/17 09:55:51;;;;;;;68.78;32.50;;;;;;;;;;6053750;23;20048;-80
2021/08/17 09:58:41;;;;;;;76.40;34.53;;;;;;;;;;6029906;23;20494;-79
2021/08/17 10:01:10;;;;;;;76.55;34.95;;;;;;;;;;6051747;23;20029;-78
2021/08/17 10:03:39;;;;;;;80.13;35.38;;;;;;;;;;6052737;23;20097;-78
2021/08/17 10:06:09;;;;;;;75.35;35.45;;;;;;;;;;6046752;23;20019;-78
2021/08/17 10:08:41;;;;;;;73.45;34.28;;;;;;;;;;6057245;23;20534;-78
2021/08/17 10:11:09;;;;;;;68.35;32.10;;;;;;;;;;6053380;23;20019;-79
2021/08/17 10:13:38;;;;;;;70.95;34.05;;;;;;;;;;6043319;23;20007;-79
2021/08/17 10:16:06;;;;;;;74.55;34.60;;;;;;;;;;5972944;23;20071;-79
2021/08/17 10:18:36;;;;;;;71.78;34.15;;;;;;;;;;6016737;23;20023;-79
2021/08/17 10:21:04;;;;;;;72.57;35.30;;;;;;;;;;6046906;23;20745;-79
2021/08/17 10:23:32;;;;;;;66.85;33.08;;;;;;;;;;6042383;23;20077;-79
2021/08/17 10:26:03;;;;;;;65.53;32.13;;;;;;;;;;6071796;23;20082;-80
2021/08/17 10:28:36;;;;;;;70.47;33.38;;;;;;;;;;6029874;23;20015;-79
2021/08/17 10:31:12;;;;;;;62.58;31.90;;;;;;;;;;6073926;23;20007;-79
2021/08/17 10:33:46;;;;;;;70.68;33.08;;;;;;;;;;6041147;23;20053;-80
2021/08/17 10:36:38;;;;;;;65.20;31.20;;;;;;;;;;6015110;23;20014;-79
2021/08/17 10:39:18;;;;;;;71.22;33.15;;;;;;;;;;6049650;23;20358;-78
2021/08/17 10:41:53;;;;;;;71.32;32.08;;;;;;;;;;6053949;23;20094;-78
2021/08/17 10:44:31;;;;;;;68.68;32.60;;;;;;;;;;6037306;23;20478;-78
2021/08/17 10:47:11;;;;;;;67.15;31.48;;;;;;;;;;6045978;23;20010;-79
2021/08/17 10:49:51;;;;;;;68.85;31.42;;;;;;;;;;6006322;23;20498;-80
2021/08/17 10:52:34;;;;;;;63.20;26.98;;;;;;;;;;6041661;23;20042;-78
2021/08/17 10:55:33;;;;;;;60.55;28.40;;;;;;;;;;6030053;23;20073;-80
2021/08/17 10:58:04;;;;;;;57.40;29.80;;;;;;;;;;6032222;23;20070;-80
2021/08/17 11:00:47;;;;;;;59.55;26.85;;;;;;;;;;6051680;23;20025;-79
2021/08/17 11:03:35;;;;;;;49.03;23.88;;;;;;;;;;6052641;23;20089;-80
2021/08/17 11:06:03;;;;;;;48.50;23.45;;;;;;;;;;6055716;23;20079;-79
2021/08/17 11:08:31;;;;;;;46.65;22.63;;;;;;;;;;6010212;23;20017;-81
2021/08/17 11:11:19;;;;;;;41.53;21.02;;;;;;;;;;6041312;23;20030;-79
2021/08/17 11:14:10;;;;;;;41.28;20.52;;;;;;;;;;6050079;23;20015;-78
2021/08/17 11:17:00;;;;;;;43.97;22.02;;;;;;;;;;6058704;23;20022;-81
2021/08/17 11:19:34;;;;;;;48.78;23.70;;;;;;;;;;6027111;23;20041;-79
2021/08/17 11:22:09;;;;;;;41.80;20.77;;;;;;;;;;6012710;23;20129;-80
2021/08/17 11:24:37;;;;;;;48.97;22.98;;;;;;;;;;6019522;23;20080;-78
2021/08/17 11:27:19;;;;;;;43.35;21.25;;;;;;;;;;6011419;23;20042;-79
2021/08/17 11:29:58;;;;;;;47.85;20.83;;;;;;;;;;6018239;23;20086;-81
2021/08/17 11:32:37;;;;;;;45.13;21.30;;;;;;;;;;6030167;23;20042;-79
2021/08/17 11:35:13;;;;;;;40.53;20.25;;;;;;;;;;6051124;23;20007;-78
2021/08/17 11:37:56;;;;;;;42.35;20.48;;;;;;;;;;6036893;23;20086;-78
2021/08/17 11:40:25;;;;;;;36.67;19.63;;;;;;;;;;6048450;23;20011;-79
2021/08/17 11:42:56;;;;;;;39.67;21.13;;;;;;;;;;6050662;23;20102;-79
2021/08/17 11:45:27;;;;;;;36.00;19.33;;;;;;;;;;6006328;23;20014;-79
2021/08/17 11:47:55;;;;;;;35.30;17.60;;;;;;;;;;6017133;23;20167;-79
2021/08/17 11:50:24;;;;;;;36.25;19.08;;;;;;;;;;6047245;23;20094;-79
2021/08/17 11:52:53;;;;;;;34.10;18.02;;;;;;;;;;6006155;23;20071;-79
2021/08/17 11:55:22;;;;;;;32.75;17.42;;;;;;;;;;6003795;23;20138;-78
2021/08/17 11:57:53;;;;;;;28.55;15.70;;;;;;;;;;5970494;23;20026;-80
2021/08/17 12:00:27;;;;;;;32.08;18.38;;;;;;;;;;6043401;23;20090;-78
2021/08/17 12:02:57;;;;;;;31.30;18.50;;;;;;;;;;6054210;23;20011;-80
2021/08/17 12:05:27;;;;;;;40.15;19.67;;;;;;;;;;5994983;23;20105;-79
2021/08/17 12:07:57;;;;;;;34.70;18.77;;;;;;;;;;6048498;23;20019;-79
2021/08/17 12:10:31;;;;;;;36.63;19.58;;;;;;;;;;6033148;23;20447;-78
2021/08/17 12:13:18;;;;;;;38.25;19.20;;;;;;;;;;6049927;23;20410;-78
2021/08/17 12:15:57;;;;;;;36.80;20.30;;;;;;;;;;6028651;23;20388;-77
2021/08/17 12:18:32;;;;;;;33.28;19.00;;;;;;;;;;6061492;23;20015;-78
2021/08/17 12:21:03;;;;;;;41.20;20.33;;;;;;;;;;6007947;23;20042;-78
2021/08/17 12:23:41;;;;;;;41.17;19.02;;;;;;;;;;6013087;23;20018;-81
2021/08/17 12:26:22;;;;;;;35.28;20.15;;;;;;;;;;6040180;23;20098;-78
2021/08/17 12:28:51;;;;;;;36.90;20.77;;;;;;;;;;6042280;23;20063;-78
2021/08/17 12:31:28;;;;;;;32.08;18.13;;;;;;;;;;6018518;23;20074;-77
2021/08/17 12:33:58;;;;;;;30.05;17.65;;;;;;;;;;6038909;23;20022;-78
2021/08/17 12:36:48;;;;;;;27.60;17.63;;;;;;;;;;6045014;23;20042;-79
2021/08/17 12:39:19;;;;;;;36.30;21.83;;;;;;;;;;6048432;23;20019;-78
2021/08/17 12:41:58;;;;;;;33.13;21.88;;;;;;;;;;6040138;23;20154;-79
2021/08/17 12:44:32;;;;;;;32.97;19.73;;;;;;;;;;6038332;23;20011;-77
2021/08/17 12:47:04;;;;;;;29.45;17.95;;;;;;;;;;6027993;23;22594;-78
2021/08/17 12:49:49;;;;;;;27.70;18.27;;;;;;;;;;6067055;23;20390;-78
2021/08/17 12:52:34;;;;;;;26.83;17.08;;;;;;;;;;6060330;23;20042;-79
2021/08/17 12:55:07;;;;;;;26.25;16.77;;;;;;;;;;6055652;23;20019;-78
2021/08/17 12:57:40;;;;;;;28.15;17.35;;;;;;;;;;6054571;23;20363;-79
2021/08/17 13:00:10;;;;;;;24.52;15.73;;;;;;;;;;6057294;23;20356;-78
2021/08/17 13:02:38;;;;;;;25.30;16.50;;;;;;;;;;6056160;23;20014;-78
2021/08/17 13:05:07;;;;;;;26.85;16.73;;;;;;;;;;6030832;23;20087;-78
2021/08/17 13:07:34;;;;;;;24.63;16.10;;;;;;;;;;6054920;23;20351;-80
2021/08/17 13:10:05;;;;;;;25.55;16.73;;;;;;;;;;6051020;23;20038;-80
2021/08/17 13:12:33;;;;;;;24.42;15.68;;;;;;;;;;6057126;23;20019;-79
2021/08/17 13:15:00;;;;;;;26.38;16.08;;;;;;;;;;6056030;23;20581;-78
2021/08/17 13:17:27;;;;;;;25.73;16.80;;;;;;;;;;6043819;23;20145;-81
2021/08/17 13:19:56;;;;;;;22.65;15.82;;;;;;;;;;6035893;23;20042;-76
2021/08/17 13:22:26;;;;;;;23.20;16.02;;;;;;;;;;6004718;23;20408;-77
2021/08/17 13:24:54;;;;;;;23.35;16.10;;;;;;;;;;6044456;23;20036;-76
2021/08/17 13:27:29;;;;;;;26.63;15.65;;;;;;;;;;6042735;23;20014;-76
2021/08/17 13:29:58;;;;;;;23.13;16.02;;;;;;;;;;6041144;23;20049;-74
2021/08/17 13:32:25;;;;;;;25.85;17.10;;;;;;;;;;6051100;23;20015;-77
2021/08/17 13:34:52;;;;;;;24.02;16.88;;;;;;;;;;6056640;23;20018;-74
2021/08/17 13:37:20;;;;;;;26.08;15.95;;;;;;;;;;6063321;23;20105;-75
2021/08/17 13:39:47;;;;;;;22.23;14.90;;;;;;;;;;6055428;23;20019;-74
2021/08/17 13:42:14;;;;;;;18.55;14.30;;;;;;;;;;6044886;23;20093;-75
2021/08/17 13:44:42;;;;;;;20.20;14.10;;;;;;;;;;6064235;23;20015;-74
2021/08/17 13:47:09;;;;;;;23.58;14.73;;;;;;;;;;6060644;23;20014;-75
2021/08/17 13:49:37;;;;;;;21.90;14.80;;;;;;;;;;6059275;23;20022;-75
2021/08/17 13:52:04;;;;;;;22.48;15.48;;;;;;;;;;6055611;23;20019;-76
2021/08/17 13:54:31;;;;;;;22.17;14.77;;;;;;;;;;6057000;23;20034;-74
2021/08/17 13:56:59;;;;;;;22.80;15.07;;;;;;;;;;6051322;23;20042;-75
2021/08/17 13:59:26;;;;;;;23.08;14.70;;;;;;;;;;6045407;23;20399;-75
2021/08/17 14:01:55;;;;;;;24.55;15.85;;;;;;;;;;6052663;23;20023;-77
2021/08/17 14:04:22;;;;;;;32.22;20.58;;;;;;;;;;6025417;23;20085;-77
2021/08/17 14:06:49;;;;;;;24.35;16.30;;;;;;;;;;6055144;23;20093;-76
2021/08/17 14:09:17;;;;;;;23.92;15.98;;;;;;;;;;6053542;23;20329;-75
2021/08/17 14:11:45;;;;;;;20.80;14.50;;;;;;;;;;6027475;23;20015;-75
2021/08/17 14:14:13;;;;;;;;;;;;;;;;;;6049255;23;20361;-75
2021/08/17 14:16:41;;;;;;;21.48;15.05;;;;;;;;;;6030660;23;20354;-74
2021/08/17 14:19:10;;;;;;;20.40;14.48;;;;;;;;;;6041803;23;20018;-77
2021/08/17 14:21:39;;;;;;;23.08;15.27;;;;;;;;;;6043279;23;20093;-78
2021/08/17 14:24:08;;;;;;;21.75;14.05;;;;;;;;;;6067011;23;20482;-75
2021/08/17 14:26:40;;;;;;;23.30;14.65;;;;;;;;;;6044386;23;20089;-75
2021/08/17 14:29:08;;;;;;;24.40;15.52;;;;;;;;;;6052627;23;20011;-75
2021/08/17 14:31:37;;;;;;;19.13;14.15;;;;;;;;;;6053758;23;20539;-75
2021/08/17 14:34:05;;;;;;;21.38;15.65;;;;;;;;;;6055635;23;20015;-75
2021/08/17 14:36:33;;;;;;;25.90;16.60;;;;;;;;;;6052023;23;20034;-75